Time;durP1;ratioP1;P1;durP2;ratioP2;P2;SDS_P1;SDS_P2;PMS_P1;PMS_P2;Temp;Humidity;BMP_temperature;BMP_pressure;BME280_temperature;BME280_humidity;BME280_pressure;Samples;Min_cycle;Max_cycle;Signal;HPM_P1;HPM_P2
2023/04/01 00:08:20;;;;;;;5.10;1.83;;;;;;;22.50;37.07;101268.34;20740844;28;20057;-76
2023/04/01 00:18:21;;;;;;;4.35;1.33;;;;;;;22.60;37.20;101261.88;20754978;28;20056;-73
2023/04/01 00:28:23;;;;;;;4.05;1.73;;;;;;;22.62;36.77;101268.00;20766754;28;20076;-71
2023/04/01 00:38:24;;;;;;;5.47;1.77;;;;;;;22.41;36.75;101231.00;20763043;28;20119;-75
2023/04/01 00:48:38;;;;;;;3.67;1.63;;;;;;;22.59;37.01;101263.84;20646549;28;20050;-79
2023/04/01 00:58:48;;;;;;;3.50;1.60;;;;;;;22.62;36.75;101266.03;20673208;28;20058;-80
2023/04/01 01:09:21;;;;;;;4.47;1.83;;;;;;;22.64;37.00;101254.63;20649067;28;20104;-80
2023/04/01 01:19:37;;;;;;;2.92;1.60;;;;;;;22.60;37.01;101257.13;20589150;28;20096;-75
2023/04/01 01:30:00;;;;;;;3.22;1.83;;;;;;;22.59;37.14;101244.31;20667470;28;20109;-79
2023/04/01 01:40:05;;;;;;;1.90;1.40;;;;;;;22.62;36.92;101227.00;20767204;28;20042;-77
2023/04/01 01:50:09;;;;;;;2.05;1.70;;;;;;;22.21;36.76;101160.22;20772334;28;20033;-80
2023/04/01 02:00:14;;;;;;;2.70;1.33;;;;;;;22.64;36.68;101261.03;20764020;28;20034;-80
2023/04/01 02:10:18;;;;;;;2.50;1.38;;;;;;;22.61;36.68;101230.06;20761360;28;20064;-77
2023/04/01 02:20:24;;;;;;;3.35;1.50;;;;;;;22.68;36.84;101220.28;20742318;28;20042;-77
2023/04/01 02:30:29;;;;;;;7.72;1.60;;;;;;;22.69;37.27;101215.53;20737917;28;20046;-74
2023/04/01 02:40:45;;;;;;;4.35;1.48;;;;;;;22.61;36.78;101193.81;20733611;28;20076;-76
2023/04/01 02:50:46;;;;;;;6.88;1.55;;;;;;;22.75;36.97;101165.00;20756425;28;20037;-76
2023/04/01 03:00:57;;;;;;;5.75;1.70;;;;;;;22.73;37.01;101183.16;20736148;28;20042;-78
2023/04/01 03:10:58;;;;;;;4.65;1.80;;;;;;;22.64;36.88;101163.41;20740369;28;20102;-77
2023/04/01 03:21:17;;;;;;;3.92;1.67;;;;;;;22.43;36.65;101128.38;20759558;28;20115;-74
2023/04/01 03:31:18;;;;;;;3.80;1.63;;;;;;;22.81;37.41;101158.25;20757456;28;20033;-75
2023/04/01 03:41:20;;;;;;;3.53;1.55;;;;;;;22.65;37.38;101148.31;20750774;28;20058;-78
2023/04/01 03:51:34;;;;;;;4.65;1.65;;;;;;;21.49;37.62;100914.53;20755441;28;20378;-73
2023/04/01 04:01:36;;;;;;;3.17;1.95;;;;;;;22.59;37.67;101102.06;20759474;28;20046;-74
2023/04/01 04:11:37;;;;;;;3.22;1.77;;;;;;;22.83;37.63;101118.91;20753536;28;20072;-75
2023/04/01 04:21:41;;;;;;;4.15;1.70;;;;;;;22.86;37.44;101092.38;20760532;28;20045;-74
2023/04/01 04:31:43;;;;;;;2.67;1.30;;;;;;;22.81;37.58;101088.50;20754870;28;20045;-73
2023/04/01 04:41:44;;;;;;;3.95;1.92;;;;;;;22.78;37.89;101083.53;20739345;28;20033;-73
2023/04/01 04:51:46;;;;;;;2.30;1.77;;;;;;;22.78;37.77;101041.66;20747844;28;20037;-72
2023/04/01 05:01:47;;;;;;;2.00;1.42;;;;;;;22.22;37.46;100915.75;20746578;28;20401;-74
2023/04/01 05:11:49;;;;;;;1.95;1.60;;;;;;;22.82;37.93;100992.53;20736515;28;20065;-73
2023/04/01 05:21:50;;;;;;;2.08;1.75;;;;;;;22.77;37.67;100969.41;20738626;28;20386;-73
2023/04/01 05:31:52;;;;;;;3.42;1.52;;;;;;;22.79;37.65;100948.47;20730832;28;20084;-73
2023/04/01 05:41:53;;;;;;;2.55;1.70;;;;;;;22.83;37.62;100927.22;20737773;28;20058;-74
2023/04/01 05:51:58;;;;;;;2.67;1.75;;;;;;;22.83;37.38;100931.97;20741214;28;20077;-73
2023/04/01 06:01:59;;;;;;;2.95;1.60;;;;;;;22.83;37.59;100904.09;20733053;28;20092;-73
2023/04/01 06:12:25;;;;;;;2.35;1.67;;;;;;;22.77;37.47;100853.09;20601979;28;4111934;-73
2023/04/01 06:23:11;;;;;;;2.22;1.55;;;;;;;22.82;37.38;100829.88;20737045;28;20049;-73
2023/04/01 06:33:15;;;;;;;2.25;1.50;;;;;;;22.87;37.50;100796.34;20730070;28;20054;-74
2023/04/01 06:43:37;;;;;;;1.65;1.50;;;;;;;22.74;37.49;100778.34;20734994;28;20046;-73
2023/04/01 06:53:38;;;;;;;1.60;1.50;;;;;;;22.89;37.38;100782.09;20720943;28;20045;-74
2023/04/01 07:03:49;;;;;;;1.92;1.60;;;;;;;22.89;37.44;100766.22;20735452;28;20443;-73
2023/04/01 07:13:59;;;;;;;2.60;1.70;;;;;;;22.88;37.16;100745.00;20740046;28;20026;-74
2023/04/01 07:24:06;;;;;;;2.00;1.70;;;;;;;22.90;37.39;100711.22;20732486;28;20069;-72
2023/04/01 07:34:20;;;;;;;1.65;1.52;;;;;;;22.89;37.50;100673.28;20732208;28;20049;-75
2023/04/01 07:44:39;;;;;;;2.20;1.60;;;;;;;22.87;37.37;100656.84;20727583;28;20038;-74
2023/04/01 07:54:53;;;;;;;2.03;1.83;;;;;;;22.87;37.42;100617.78;20725839;28;20061;-74
2023/04/01 08:05:27;;;;;;;1.98;1.70;;;;;;;22.79;37.22;100585.81;20735445;28;20065;-74
2023/04/01 08:15:58;;;;;;;2.75;1.48;;;;;;;22.93;37.20;100582.28;20728085;28;20042;-73
2023/04/01 08:26:11;;;;;;;2.63;1.50;;;;;;;22.96;37.13;100528.69;20732292;28;20046;-74
2023/04/01 08:36:21;;;;;;;2.55;1.50;;;;;;;22.86;37.00;100447.88;20732933;28;20378;-73
2023/04/01 08:46:43;;;;;;;1.88;1.48;;;;;;;23.01;36.75;100453.25;20746396;28;20054;-74
2023/04/01 08:57:04;;;;;;;2.30;1.70;;;;;;;23.00;36.82;100426.44;20739074;28;20409;-74
2023/04/01 09:07:30;;;;;;;1.80;1.70;;;;;;;23.02;37.03;100432.56;20748060;28;20050;-74
2023/04/01 09:18:07;;;;;;;1.85;1.60;;;;;;;22.99;36.89;100419.22;20749231;28;20033;-75
2023/04/01 09:28:29;;;;;;;1.88;1.67;;;;;;;23.05;36.91;100420.81;20746031;28;20153;-74
2023/04/01 09:38:42;;;;;;;1.88;1.55;;;;;;;23.02;36.73;100393.50;20746135;28;20042;-74
2023/04/01 09:49:28;;;;;;;1.80;1.58;;;;;;;22.97;37.22;100368.50;20737278;28;20053;-74
2023/04/01 09:59:54;;;;;;;1.35;1.23;;;;;;;23.03;36.95;100333.75;20729035;28;20053;-74
2023/04/01 10:10:13;;;;;;;2.17;1.88;;;;;;;22.99;37.48;100308.44;20738529;28;20436;-73
2023/04/01 10:20:43;;;;;;;3.22;1.40;;;;;;;22.98;37.66;100317.13;20740922;28;20119;-73
2023/04/01 10:30:50;;;;;;;2.53;1.70;;;;;;;23.00;37.78;100272.97;20721359;28;20054;-72
2023/04/01 10:41:31;;;;;;;1.90;1.70;;;;;;;22.98;37.72;100264.94;20738888;28;20033;-73
2023/04/01 10:51:35;;;;;;;2.00;1.50;;;;;;;23.01;37.73;100221.63;20725044;28;20042;-74
2023/04/01 11:02:14;;;;;;;2.83;1.90;;;;;;;22.95;37.89;100204.16;20741192;28;20065;-76
2023/04/01 11:12:43;;;;;;;2.55;1.80;;;;;;;22.96;37.86;100196.66;20726801;28;20493;-74
2023/04/01 11:23:05;;;;;;;3.73;2.43;;;;;;;22.86;38.02;100183.69;20740528;28;20037;-76
2023/04/01 11:33:31;;;;;;;2.60;1.70;;;;;;;22.93;38.26;100152.63;20737615;28;20068;-75
2023/04/01 11:43:44;;;;;;;3.47;1.83;;;;;;;22.87;38.60;100165.00;20734529;28;20084;-78
2023/04/01 11:54:12;;;;;;;2.08;1.65;;;;;;;22.88;38.06;100172.22;20745130;28;20046;-77
2023/04/01 12:04:22;;;;;;;1.70;1.60;;;;;;;22.98;38.04;100183.19;20736312;28;20049;-76
2023/04/01 12:14:26;;;;;;;2.13;1.38;;;;;;;23.01;37.98;100135.97;20727859;28;20030;-76
2023/04/01 12:24:45;;;;;;;1.70;1.40;;;;;;;23.00;38.16;100119.50;20742057;28;20037;-82
2023/04/01 12:35:08;;;;;;;4.25;1.45;;;;;;;23.05;38.99;100097.09;20742185;28;20034;-80
2023/04/01 12:45:32;;;;;;;3.55;1.40;;;;;;;23.10;39.21;100071.84;20748806;28;20081;-79
2023/04/01 12:55:49;;;;;;;5.72;1.65;;;;;;;23.18;40.21;100092.59;20744718;28;20108;-80
2023/04/01 13:06:15;;;;;;;4.93;1.40;;;;;;;23.22;39.57;100086.06;20734313;28;20067;-78
2023/04/01 13:16:25;;;;;;;6.72;1.80;;;;;;;23.33;40.79;100098.63;20739288;28;20097;-83
2023/04/01 13:26:36;;;;;;;8.63;1.35;;;;;;;23.39;40.83;100084.53;20747201;28;20046;-77
2023/04/01 13:37:10;;;;;;;21.80;4.50;;;;;;;23.40;45.17;100075.00;20742186;28;20037;-79
2023/04/01 13:47:29;;;;;;;24.00;4.45;;;;;;;23.51;42.92;100054.06;20736377;28;20092;-78
2023/04/01 13:57:42;;;;;;;26.73;5.78;;;;;;;23.61;45.91;100048.22;20748202;28;20042;-78
2023/04/01 14:08:17;;;;;;;27.10;4.78;;;;;;;23.61;45.69;100031.44;20740250;28;20448;-81
2023/04/01 14:18:39;;;;;;;19.10;3.92;;;;;;;23.78;44.97;100031.56;20731193;28;20050;-78
2023/04/01 14:29:02;;;;;;;10.85;4.07;;;;;;;23.88;45.34;100022.06;20735069;28;20578;-77
2023/04/01 14:39:12;;;;;;;17.92;3.45;;;;;;;23.92;45.53;99999.91;20741304;28;20041;-82
2023/04/01 14:49:38;;;;;;;15.25;3.70;;;;;;;23.92;45.24;100003.50;20736969;28;20034;-80
2023/04/01 15:00:22;;;;;;;16.63;3.33;;;;;;;23.73;44.85;99958.25;20743783;28;20057;-78
2023/04/01 15:10:32;;;;;;;11.48;3.38;;;;;;;23.94;45.24;99975.25;20705815;28;20196;-81
2023/04/01 15:20:46;;;;;;;8.85;2.90;;;;;;;23.92;45.38;99969.16;20736976;28;20579;-81
2023/04/01 15:30:55;;;;;;;6.80;2.42;;;;;;;23.77;43.24;99951.69;20735411;28;20108;-82
2023/04/01 15:41:23;;;;;;;7.25;2.83;;;;;;;24.00;42.90;99948.78;20729398;28;20136;-80
2023/04/01 15:51:56;;;;;;;10.55;2.83;;;;;;;23.98;42.65;99900.78;20749654;28;20042;-81
2023/04/01 16:02:34;;;;;;;7.15;2.70;;;;;;;23.98;42.39;99920.34;20761278;28;20385;-78
2023/04/01 16:12:55;;;;;;;8.23;2.65;;;;;;;23.80;43.97;99934.28;20760876;28;20096;-74
2023/04/01 16:23:29;;;;;;;11.77;3.05;;;;;;;23.81;43.25;99975.03;20736942;28;20034;-83
2023/04/01 16:34:07;;;;;;;5.72;2.75;;;;;;;23.85;44.91;100014.31;20757500;28;20440;-81
2023/04/01 16:44:27;;;;;;;9.55;2.70;;;;;;;23.65;43.92;99940.31;20788943;28;20022;-85
2023/04/01 16:54:31;;;;;;;7.97;2.78;;;;;;;23.92;43.93;99913.28;20753739;28;20559;-78
2023/04/01 17:04:37;;;;;;;6.70;2.25;;;;;;;23.93;42.28;99847.88;20745773;28;20397;-74
2023/04/01 17:15:05;;;;;;;5.05;2.50;;;;;;;23.97;42.28;99788.19;20768376;28;20123;-79
2023/04/01 17:25:21;;;;;;;6.70;2.30;;;;;;;24.02;42.23;99796.41;20785737;28;20054;-75
2023/04/01 17:35:35;;;;;;;6.85;2.00;;;;;;;24.03;42.15;99746.94;20776194;28;20034;-79
2023/04/01 17:45:49;;;;;;;5.38;2.45;;;;;;;24.07;41.98;99743.16;20745836;28;20053;-75
2023/04/01 17:56:34;;;;;;;4.05;1.75;;;;;;;24.06;42.03;99707.16;20766380;28;20088;-75
2023/04/01 18:06:57;;;;;;;4.60;2.28;;;;;;;24.08;41.74;99680.50;20794695;28;20041;-74
2023/04/01 18:17:25;;;;;;;3.55;1.83;;;;;;;24.09;41.58;99668.16;20833541;28;20041;-77
2023/04/01 18:27:40;;;;;;;6.47;2.13;;;;;;;24.17;41.04;99676.88;20824219;28;20046;-76
2023/04/01 18:38:05;;;;;;;2.90;1.70;;;;;;;24.12;41.14;99655.50;20754393;28;20096;-73
2023/04/01 18:48:37;;;;;;;4.00;2.00;;;;;;;24.14;41.22;99608.47;20752188;28;20436;-76
2023/04/01 18:59:00;;;;;;;6.57;2.03;;;;;;;24.17;41.26;99563.09;20745863;28;20087;-74
2023/04/01 19:09:18;;;;;;;4.07;1.85;;;;;;;24.15;41.00;99540.25;20740362;28;20096;-71
2023/04/01 19:19:30;;;;;;;5.97;2.17;;;;;;;24.18;41.21;99496.81;20745768;28;20392;-74
2023/04/01 19:29:53;;;;;;;3.13;1.95;;;;;;;24.12;41.03;99434.72;20704713;28;20104;-74
2023/04/01 19:40:01;;;;;;;2.67;1.55;;;;;;;24.18;41.33;99418.56;20745363;28;20033;-73
2023/04/01 19:50:44;;;;;;;4.13;2.00;;;;;;;24.13;41.15;99394.44;20744588;28;20117;-71
2023/04/01 20:00:55;;;;;;;4.85;1.88;;;;;;;24.18;40.91;99382.22;20722663;28;20087;-74
2023/04/01 20:11:22;;;;;;;5.43;1.85;;;;;;;24.17;41.24;99352.66;20724378;28;20397;-74
2023/04/01 20:21:51;;;;;;;2.45;1.73;;;;;;;24.15;40.85;99333.44;20680180;28;20465;-75
2023/04/01 20:32:26;;;;;;;7.33;1.93;;;;;;;24.16;39.88;99321.09;20712335;28;20046;-74
2023/04/01 20:42:46;;;;;;;4.95;1.85;;;;;;;24.16;40.01;99298.75;20755856;28;20050;-81
2023/04/01 20:53:11;;;;;;;8.02;2.03;;;;;;;24.17;40.39;99261.25;20760079;28;20034;-76
2023/04/01 21:03:24;;;;;;;5.35;2.35;;;;;;;24.18;40.43;99240.50;20779674;28;20103;-73
2023/04/01 21:14:15;;;;;;;3.80;2.00;;;;;;;24.10;39.88;99219.09;20754231;28;20088;-70
2023/04/01 21:24:50;;;;;;;5.25;2.30;;;;;;;24.17;40.53;99205.34;20752428;28;20072;-70
2023/04/01 21:35:03;;;;;;;2.83;1.77;;;;;;;24.21;39.86;99169.97;20755054;28;20038;-70
2023/04/01 21:45:26;;;;;;;7.70;2.35;;;;;;;24.15;39.77;99115.47;20753857;28;20042;-70
2023/04/01 21:55:53;;;;;;;5.90;1.90;;;;;;;24.11;40.13;99081.00;20753773;28;20045;-71
2023/04/01 22:06:22;;;;;;;8.40;2.25;;;;;;;24.07;40.08;99022.19;20752222;28;20393;-71
2023/04/01 22:16:44;;;;;;;7.10;2.17;;;;;;;24.16;39.88;98996.94;20751930;28;20073;-70
2023/04/01 22:27:03;;;;;;;4.45;2.20;;;;;;;24.15;39.57;98964.56;20751118;28;20392;-73
2023/04/01 22:37:18;;;;;;;4.00;1.98;;;;;;;24.13;40.45;98955.69;20750409;28;20077;-71
2023/04/01 22:47:28;;;;;;;5.75;2.00;;;;;;;24.13;40.34;99005.19;20749589;28;20100;-71
2023/04/01 22:57:48;;;;;;;3.47;1.98;;;;;;;24.09;40.10;99298.47;20748412;28;20060;-71
2023/04/01 23:08:00;;;;;;;2.33;1.55;;;;;;;24.13;40.17;99461.50;20744349;28;20049;-72
2023/04/01 23:18:36;;;;;;;3.85;1.90;;;;;;;24.08;40.57;99454.13;20747608;28;20073;-71
2023/04/01 23:28:45;;;;;;;3.85;1.48;;;;;;;24.03;40.52;99428.38;20759910;28;20072;-71
2023/04/01 23:38:49;;;;;;;3.60;1.58;;;;;;;24.00;40.54;99476.53;20747474;28;20030;-72
2023/04/01 23:48:52;;;;;;;4.13;1.85;;;;;;;23.96;40.29;99412.16;20746415;28;20042;-70
2023/04/01 23:58:55;;;;;;;4.35;1.88;;;;;;;23.90;40.61;99494.50;20745195;28;20064;-72
